sensor_id;sensor_type;location;lat;lon;timestamp;pressure;altitude;pressure_sealevel;temperature;humidity
52935;BME280;38802;50.198;19.796;2024-03-08T00:01:05;96731.70;;;-1.25;100.00
52935;BME280;38802;50.198;19.796;2024-03-08T00:03:44;96732.61;;;-1.28;100.00
52935;BME280;38802;50.198;19.796;2024-03-08T00:06:13;96731.78;;;-1.28;100.00
52935;BME280;38802;50.198;19.796;2024-03-08T00:08:41;96728.02;;;-1.28;100.00
52935;BME280;38802;50.198;19.796;2024-03-08T00:11:09;96729.71;;;-1.27;100.00
52935;BME280;38802;50.198;19.796;2024-03-08T00:13:37;96725.65;;;-1.28;100.00
52935;BME280;38802;50.198;19.796;2024-03-08T00:16:05;96730.58;;;-1.28;100.00
52935;BME280;38802;50.198;19.796;2024-03-08T00:18:33;96728.84;;;-1.27;100.00
52935;BME280;38802;50.198;19.796;2024-03-08T00:21:02;96727.13;;;-1.26;100.00
52935;BME280;38802;50.198;19.796;2024-03-08T00:23:30;96726.22;;;-1.24;100.00
52935;BME280;38802;50.198;19.796;2024-03-08T00:25:58;96724.19;;;-1.24;100.00
52935;BME280;38802;50.198;19.796;2024-03-08T00:28:26;96720.93;;;-1.24;100.00
52935;BME280;38802;50.198;19.796;2024-03-08T00:30:55;96724.14;;;-1.23;100.00
52935;BME280;38802;50.198;19.796;2024-03-08T00:33:23;96722.24;;;-1.22;100.00
52935;BME280;38802;50.198;19.796;2024-03-08T00:35:51;96713.73;;;-1.22;100.00
52935;BME280;38802;50.198;19.796;2024-03-08T00:38:19;96714.02;;;-1.20;100.00
52935;BME280;38802;50.198;19.796;2024-03-08T00:40:47;96715.92;;;-1.21;100.00
52935;BME280;38802;50.198;19.796;2024-03-08T00:43:15;96716.77;;;-1.21;100.00
52935;BME280;38802;50.198;19.796;2024-03-08T00:45:43;96714.71;;;-1.15;100.00
52935;BME280;38802;50.198;19.796;2024-03-08T00:48:12;96710.34;;;-1.11;100.00
52935;BME280;38802;50.198;19.796;2024-03-08T00:50:40;96707.44;;;-1.11;100.00
52935;BME280;38802;50.198;19.796;2024-03-08T00:53:08;96712.09;;;-1.13;100.00
52935;BME280;38802;50.198;19.796;2024-03-08T00:55:38;96707.64;;;-1.13;100.00
52935;BME280;38802;50.198;19.796;2024-03-08T00:58:06;96708.34;;;-1.13;100.00
52935;BME280;38802;50.198;19.796;2024-03-08T01:00:37;96705.08;;;-1.12;100.00
52935;BME280;38802;50.198;19.796;2024-03-08T01:03:06;96704.21;;;-1.12;100.00
52935;BME280;38802;50.198;19.796;2024-03-08T01:05:34;96702.75;;;-1.15;100.00
52935;BME280;38802;50.198;19.796;2024-03-08T01:08:03;96703.35;;;-1.17;100.00
52935;BME280;38802;50.198;19.796;2024-03-08T01:10:32;96705.02;;;-1.16;100.00
52935;BME280;38802;50.198;19.796;2024-03-08T01:13:00;96703.92;;;-1.14;100.00
52935;BME280;38802;50.198;19.796;2024-03-08T01:15:28;96698.63;;;-1.13;100.00
52935;BME280;38802;50.198;19.796;2024-03-08T01:17:56;96697.55;;;-1.17;100.00
52935;BME280;38802;50.198;19.796;2024-03-08T01:20:25;96695.91;;;-1.20;100.00
52935;BME280;38802;50.198;19.796;2024-03-08T01:22:53;96690.22;;;-1.23;100.00
52935;BME280;38802;50.198;19.796;2024-03-08T01:25:21;96687.17;;;-1.24;100.00
52935;BME280;38802;50.198;19.796;2024-03-08T01:27:50;96681.23;;;-1.24;100.00
52935;BME280;38802;50.198;19.796;2024-03-08T01:30:18;96682.50;;;-1.27;100.00
52935;BME280;38802;50.198;19.796;2024-03-08T01:32:46;96684.05;;;-1.28;100.00
52935;BME280;38802;50.198;19.796;2024-03-08T01:35:15;96683.63;;;-1.25;100.00
52935;BME280;38802;50.198;19.796;2024-03-08T01:37:43;96681.77;;;-1.25;100.00
52935;BME280;38802;50.198;19.796;2024-03-08T01:40:13;96678.18;;;-1.26;100.00
52935;BME280;38802;50.198;19.796;2024-03-08T01:42:41;96677.70;;;-1.27;100.00
52935;BME280;38802;50.198;19.796;2024-03-08T01:45:09;96677.59;;;-1.29;100.00
52935;BME280;38802;50.198;19.796;2024-03-08T01:47:37;96677.21;;;-1.28;100.00
52935;BME280;38802;50.198;19.796;2024-03-08T01:50:07;96672.59;;;-1.26;100.00
52935;BME280;38802;50.198;19.796;2024-03-08T01:52:35;96677.90;;;-1.21;100.00
52935;BME280;38802;50.198;19.796;2024-03-08T01:55:05;96672.71;;;-1.19;100.00
52935;BME280;38802;50.198;19.796;2024-03-08T01:57:35;96670.54;;;-1.20;100.00
52935;BME280;38802;50.198;19.796;2024-03-08T02:00:05;96672.15;;;-1.23;100.00
52935;BME280;38802;50.198;19.796;2024-03-08T02:02:34;96663.42;;;-1.28;100.00
52935;BME280;38802;50.198;19.796;2024-03-08T02:05:03;96662.44;;;-1.30;100.00
52935;BME280;38802;50.198;19.796;2024-03-08T02:07:31;96659.63;;;-1.33;100.00
52935;BME280;38802;50.198;19.796;2024-03-08T02:09:59;96656.66;;;-1.37;100.00
52935;BME280;38802;50.198;19.796;2024-03-08T02:12:29;96658.02;;;-1.37;100.00
52935;BME280;38802;50.198;19.796;2024-03-08T02:14:59;96654.73;;;-1.35;100.00
52935;BME280;38802;50.198;19.796;2024-03-08T02:17:29;96651.71;;;-1.37;100.00
52935;BME280;38802;50.198;19.796;2024-03-08T02:19:59;96652.42;;;-1.37;100.00
52935;BME280;38802;50.198;19.796;2024-03-08T02:22:30;96650.77;;;-1.39;100.00
52935;BME280;38802;50.198;19.796;2024-03-08T02:25:00;96648.86;;;-1.38;100.00
52935;BME280;38802;50.198;19.796;2024-03-08T02:27:31;96646.02;;;-1.40;100.00
52935;BME280;38802;50.198;19.796;2024-03-08T02:29:59;96648.30;;;-1.42;100.00
52935;BME280;38802;50.198;19.796;2024-03-08T02:32:27;96645.77;;;-1.43;100.00
52935;BME280;38802;50.198;19.796;2024-03-08T02:34:56;96646.44;;;-1.43;100.00
52935;BME280;38802;50.198;19.796;2024-03-08T02:37:28;96646.59;;;-1.48;100.00
52935;BME280;38802;50.198;19.796;2024-03-08T02:39:56;96645.84;;;-1.51;100.00
52935;BME280;38802;50.198;19.796;2024-03-08T02:42:24;96649.65;;;-1.53;100.00
52935;BME280;38802;50.198;19.796;2024-03-08T02:44:52;96648.52;;;-1.55;100.00
52935;BME280;38802;50.198;19.796;2024-03-08T02:47:20;96648.92;;;-1.58;100.00
52935;BME280;38802;50.198;19.796;2024-03-08T02:49:51;96647.09;;;-1.60;100.00
52935;BME280;38802;50.198;19.796;2024-03-08T02:52:19;96648.38;;;-1.63;100.00
52935;BME280;38802;50.198;19.796;2024-03-08T02:54:49;96648.23;;;-1.64;100.00
52935;BME280;38802;50.198;19.796;2024-03-08T02:57:17;96648.67;;;-1.61;100.00
52935;BME280;38802;50.198;19.796;2024-03-08T02:59:46;96647.18;;;-1.62;100.00
52935;BME280;38802;50.198;19.796;2024-03-08T03:02:14;96649.44;;;-1.64;100.00
52935;BME280;38802;50.198;19.796;2024-03-08T03:04:42;96648.08;;;-1.64;100.00
52935;BME280;38802;50.198;19.796;2024-03-08T03:07:11;96649.63;;;-1.65;100.00
52935;BME280;38802;50.198;19.796;2024-03-08T03:09:39;96654.14;;;-1.68;100.00
52935;BME280;38802;50.198;19.796;2024-03-08T03:12:08;96654.48;;;-1.68;100.00
52935;BME280;38802;50.198;19.796;2024-03-08T03:14:36;96656.32;;;-1.66;100.00
52935;BME280;38802;50.198;19.796;2024-03-08T03:17:07;96654.85;;;-1.63;100.00
52935;BME280;38802;50.198;19.796;2024-03-08T03:19:36;96651.06;;;-1.61;100.00
52935;BME280;38802;50.198;19.796;2024-03-08T03:22:04;96649.33;;;-1.60;100.00
52935;BME280;38802;50.198;19.796;2024-03-08T03:24:33;96648.01;;;-1.62;100.00
52935;BME280;38802;50.198;19.796;2024-03-08T03:27:01;96647.28;;;-1.60;100.00
52935;BME280;38802;50.198;19.796;2024-03-08T03:29:39;96651.66;;;-1.58;100.00
52935;BME280;38802;50.198;19.796;2024-03-08T03:32:09;96650.08;;;-1.56;100.00
52935;BME280;38802;50.198;19.796;2024-03-08T03:34:38;96647.60;;;-1.53;100.00
52935;BME280;38802;50.198;19.796;2024-03-08T03:37:07;96649.44;;;-1.52;100.00
52935;BME280;38802;50.198;19.796;2024-03-08T03:39:36;96647.02;;;-1.50;100.00
52935;BME280;38802;50.198;19.796;2024-03-08T03:42:16;96648.02;;;-1.50;100.00
52935;BME280;38802;50.198;19.796;2024-03-08T03:44:48;96646.69;;;-1.51;100.00
52935;BME280;38802;50.198;19.796;2024-03-08T03:47:16;96646.11;;;-1.49;100.00
52935;BME280;38802;50.198;19.796;2024-03-08T03:49:44;96644.52;;;-1.47;100.00
52935;BME280;38802;50.198;19.796;2024-03-08T03:52:13;96643.64;;;-1.46;100.00
52935;BME280;38802;50.198;19.796;2024-03-08T03:54:41;96643.34;;;-1.47;100.00
52935;BME280;38802;50.198;19.796;2024-03-08T03:57:09;96642.29;;;-1.52;100.00
52935;BME280;38802;50.198;19.796;2024-03-08T03:59:37;96641.70;;;-1.55;100.00
52935;BME280;38802;50.198;19.796;2024-03-08T04:02:05;96643.50;;;-1.59;100.00
52935;BME280;38802;50.198;19.796;2024-03-08T04:04:33;96644.28;;;-1.62;100.00
52935;BME280;38802;50.198;19.796;2024-03-08T04:07:01;96640.28;;;-1.66;100.00
52935;BME280;38802;50.198;19.796;2024-03-08T04:09:30;96638.95;;;-1.67;100.00
52935;BME280;38802;50.198;19.796;2024-03-08T04:11:58;96637.91;;;-1.66;100.00
52935;BME280;38802;50.198;19.796;2024-03-08T04:14:27;96630.38;;;-1.65;100.00
52935;BME280;38802;50.198;19.796;2024-03-08T04:16:55;96631.05;;;-1.65;100.00
52935;BME280;38802;50.198;19.796;2024-03-08T04:19:23;96627.54;;;-1.67;100.00
52935;BME280;38802;50.198;19.796;2024-03-08T04:21:52;96633.46;;;-1.66;100.00
52935;BME280;38802;50.198;19.796;2024-03-08T04:24:21;96630.73;;;-1.66;100.00
52935;BME280;38802;50.198;19.796;2024-03-08T04:26:49;96632.27;;;-1.65;100.00
52935;BME280;38802;50.198;19.796;2024-03-08T04:29:17;96630.96;;;-1.67;100.00
52935;BME280;38802;50.198;19.796;2024-03-08T04:31:45;96633.16;;;-1.67;100.00
52935;BME280;38802;50.198;19.796;2024-03-08T04:34:13;96635.39;;;-1.67;100.00
52935;BME280;38802;50.198;19.796;2024-03-08T04:36:42;96639.14;;;-1.67;100.00
52935;BME280;38802;50.198;19.796;2024-03-08T04:39:11;96640.01;;;-1.68;100.00
52935;BME280;38802;50.198;19.796;2024-03-08T04:41:41;96641.14;;;-1.72;100.00
52935;BME280;38802;50.198;19.796;2024-03-08T04:44:11;96642.26;;;-1.76;100.00
52935;BME280;38802;50.198;19.796;2024-03-08T04:46:40;96640.58;;;-1.77;100.00
52935;BME280;38802;50.198;19.796;2024-03-08T04:49:08;96642.45;;;-1.76;100.00
52935;BME280;38802;50.198;19.796;2024-03-08T04:51:36;96643.63;;;-1.77;100.00
52935;BME280;38802;50.198;19.796;2024-03-08T04:54:05;96641.34;;;-1.74;100.00
52935;BME280;38802;50.198;19.796;2024-03-08T04:56:33;96645.74;;;-1.73;100.00
52935;BME280;38802;50.198;19.796;2024-03-08T04:59:01;96644.63;;;-1.76;100.00
52935;BME280;38802;50.198;19.796;2024-03-08T05:01:29;96647.73;;;-1.77;100.00
52935;BME280;38802;50.198;19.796;2024-03-08T05:03:57;96653.13;;;-1.82;100.00
52935;BME280;38802;50.198;19.796;2024-03-08T05:06:32;96653.48;;;-1.82;100.00
52935;BME280;38802;50.198;19.796;2024-03-08T05:09:01;96653.83;;;-1.82;100.00
52935;BME280;38802;50.198;19.796;2024-03-08T05:11:43;96656.15;;;-1.86;100.00
52935;BME280;38802;50.198;19.796;2024-03-08T05:14:13;96653.63;;;-1.87;100.00
52935;BME280;38802;50.198;19.796;2024-03-08T05:16:46;96656.02;;;-1.87;100.00
52935;BME280;38802;50.198;19.796;2024-03-08T05:19:18;96655.30;;;-1.86;100.00
52935;BME280;38802;50.198;19.796;2024-03-08T05:21:47;96653.72;;;-1.84;100.00
52935;BME280;38802;50.198;19.796;2024-03-08T05:24:16;96654.64;;;-1.81;100.00
52935;BME280;38802;50.198;19.796;2024-03-08T05:26:46;96651.60;;;-1.81;100.00
52935;BME280;38802;50.198;19.796;2024-03-08T05:29:15;96650.88;;;-1.86;100.00
52935;BME280;38802;50.198;19.796;2024-03-08T05:31:50;96650.36;;;-1.86;100.00
52935;BME280;38802;50.198;19.796;2024-03-08T05:34:21;96648.34;;;-1.86;100.00
52935;BME280;38802;50.198;19.796;2024-03-08T05:36:49;96650.17;;;-1.85;100.00
52935;BME280;38802;50.198;19.796;2024-03-08T05:39:19;96650.91;;;-1.87;100.00
52935;BME280;38802;50.198;19.796;2024-03-08T05:41:48;96649.66;;;-1.92;100.00
52935;BME280;38802;50.198;19.796;2024-03-08T05:44:16;96647.48;;;-1.93;100.00
52935;BME280;38802;50.198;19.796;2024-03-08T05:46:45;96650.74;;;-1.94;100.00
52935;BME280;38802;50.198;19.796;2024-03-08T05:49:16;96652.38;;;-1.91;100.00
52935;BME280;38802;50.198;19.796;2024-03-08T05:51:44;96654.08;;;-1.92;100.00
52935;BME280;38802;50.198;19.796;2024-03-08T05:54:13;96656.81;;;-1.92;100.00
52935;BME280;38802;50.198;19.796;2024-03-08T05:56:45;96660.74;;;-1.93;100.00
52935;BME280;38802;50.198;19.796;2024-03-08T05:59:13;96661.42;;;-1.98;100.00
52935;BME280;38802;50.198;19.796;2024-03-08T06:01:41;96662.34;;;-2.01;100.00
52935;BME280;38802;50.198;19.796;2024-03-08T06:04:10;96662.64;;;-2.06;100.00
52935;BME280;38802;50.198;19.796;2024-03-08T06:06:40;96661.42;;;-2.11;100.00
52935;BME280;38802;50.198;19.796;2024-03-08T06:09:09;96659.30;;;-2.15;100.00
52935;BME280;38802;50.198;19.796;2024-03-08T06:11:40;96659.99;;;-2.16;100.00
52935;BME280;38802;50.198;19.796;2024-03-08T06:14:11;96660.17;;;-2.16;100.00
52935;BME280;38802;50.198;19.796;2024-03-08T06:16:39;96660.83;;;-2.15;100.00
52935;BME280;38802;50.198;19.796;2024-03-08T06:19:07;96660.59;;;-2.12;100.00
52935;BME280;38802;50.198;19.796;2024-03-08T06:21:36;96658.52;;;-2.11;100.00
52935;BME280;38802;50.198;19.796;2024-03-08T06:24:04;96661.08;;;-2.11;100.00
52935;BME280;38802;50.198;19.796;2024-03-08T06:26:32;96662.37;;;-2.08;100.00
52935;BME280;38802;50.198;19.796;2024-03-08T06:29:03;96660.45;;;-2.06;100.00
52935;BME280;38802;50.198;19.796;2024-03-08T06:31:34;96657.70;;;-2.06;100.00
52935;BME280;38802;50.198;19.796;2024-03-08T06:34:07;96656.55;;;-2.07;100.00
52935;BME280;38802;50.198;19.796;2024-03-08T06:36:36;96656.39;;;-2.07;100.00
52935;BME280;38802;50.198;19.796;2024-03-08T06:39:06;96658.05;;;-2.06;100.00
52935;BME280;38802;50.198;19.796;2024-03-08T06:41:38;96656.44;;;-2.03;100.00
52935;BME280;38802;50.198;19.796;2024-03-08T06:44:06;96656.08;;;-2.02;100.00
52935;BME280;38802;50.198;19.796;2024-03-08T06:46:37;96660.04;;;-1.98;100.00
52935;BME280;38802;50.198;19.796;2024-03-08T06:49:07;96658.57;;;-1.94;100.00
52935;BME280;38802;50.198;19.796;2024-03-08T06:51:38;96660.50;;;-1.89;100.00
52935;BME280;38802;50.198;19.796;2024-03-08T06:54:08;96657.02;;;-1.87;100.00
52935;BME280;38802;50.198;19.796;2024-03-08T06:56:37;96659.21;;;-1.86;100.00
52935;BME280;38802;50.198;19.796;2024-03-08T06:59:05;96660.73;;;-1.85;100.00
52935;BME280;38802;50.198;19.796;2024-03-08T07:01:34;96654.93;;;-1.85;100.00
52935;BME280;38802;50.198;19.796;2024-03-08T07:04:04;96657.11;;;-1.90;100.00
52935;BME280;38802;50.198;19.796;2024-03-08T07:06:33;96660.30;;;-1.88;100.00
52935;BME280;38802;50.198;19.796;2024-03-08T07:09:01;96660.20;;;-1.91;100.00
52935;BME280;38802;50.198;19.796;2024-03-08T07:11:29;96660.30;;;-1.89;100.00
52935;BME280;38802;50.198;19.796;2024-03-08T07:13:57;96661.77;;;-1.92;100.00
52935;BME280;38802;50.198;19.796;2024-03-08T07:16:26;96665.28;;;-1.97;100.00
52935;BME280;38802;50.198;19.796;2024-03-08T07:18:54;96665.34;;;-1.98;100.00
52935;BME280;38802;50.198;19.796;2024-03-08T07:21:23;96666.28;;;-1.95;100.00
52935;BME280;38802;50.198;19.796;2024-03-08T07:23:53;96664.99;;;-1.92;100.00
52935;BME280;38802;50.198;19.796;2024-03-08T07:26:41;96666.55;;;-1.93;100.00
52935;BME280;38802;50.198;19.796;2024-03-08T07:29:09;96662.67;;;-1.95;100.00
52935;BME280;38802;50.198;19.796;2024-03-08T07:31:37;96661.78;;;-1.93;100.00
52935;BME280;38802;50.198;19.796;2024-03-08T07:34:18;96663.09;;;-1.91;100.00
52935;BME280;38802;50.198;19.796;2024-03-08T07:36:46;96667.17;;;-1.91;100.00
52935;BME280;38802;50.198;19.796;2024-03-08T07:39:14;96662.78;;;-1.92;100.00
52935;BME280;38802;50.198;19.796;2024-03-08T07:41:43;96661.90;;;-1.91;100.00
52935;BME280;38802;50.198;19.796;2024-03-08T07:44:11;96665.27;;;-1.89;100.00
52935;BME280;38802;50.198;19.796;2024-03-08T07:46:39;96668.50;;;-1.89;100.00
52935;BME280;38802;50.198;19.796;2024-03-08T07:49:09;96667.02;;;-1.84;100.00
52935;BME280;38802;50.198;19.796;2024-03-08T07:51:39;96667.63;;;-1.76;100.00
52935;BME280;38802;50.198;19.796;2024-03-08T07:54:07;96661.87;;;-1.77;100.00
52935;BME280;38802;50.198;19.796;2024-03-08T07:56:37;96661.80;;;-1.74;100.00
52935;BME280;38802;50.198;19.796;2024-03-08T07:59:06;96658.42;;;-1.69;100.00
52935;BME280;38802;50.198;19.796;2024-03-08T08:01:34;96656.42;;;-1.64;100.00
52935;BME280;38802;50.198;19.796;2024-03-08T08:04:03;96655.93;;;-1.59;100.00
52935;BME280;38802;50.198;19.796;2024-03-08T08:06:32;96657.21;;;-1.62;99.96
52935;BME280;38802;50.198;19.796;2024-03-08T08:09:01;96651.62;;;-1.63;100.00
52935;BME280;38802;50.198;19.796;2024-03-08T08:11:29;96650.00;;;-1.60;100.00
52935;BME280;38802;50.198;19.796;2024-03-08T08:13:57;96648.56;;;-1.51;100.00
52935;BME280;38802;50.198;19.796;2024-03-08T08:16:27;96648.42;;;-1.35;100.00
52935;BME280;38802;50.198;19.796;2024-03-08T08:18:55;96647.31;;;-1.25;100.00
52935;BME280;38802;50.198;19.796;2024-03-08T08:21:23;96643.45;;;-1.27;99.73
52935;BME280;38802;50.198;19.796;2024-03-08T08:23:53;96647.04;;;-1.27;99.99
52935;BME280;38802;50.198;19.796;2024-03-08T08:26:22;96646.05;;;-1.23;99.94
52935;BME280;38802;50.198;19.796;2024-03-08T08:28:54;96642.05;;;-1.19;99.92
52935;BME280;38802;50.198;19.796;2024-03-08T08:31:22;96644.54;;;-1.17;99.49
52935;BME280;38802;50.198;19.796;2024-03-08T08:33:50;96639.12;;;-1.19;99.67
52935;BME280;38802;50.198;19.796;2024-03-08T08:36:21;96641.88;;;-1.14;99.64
52935;BME280;38802;50.198;19.796;2024-03-08T08:38:49;96645.08;;;-1.08;99.68
52935;BME280;38802;50.198;19.796;2024-03-08T08:41:18;96645.64;;;-1.04;99.19
52935;BME280;38802;50.198;19.796;2024-03-08T08:43:46;96649.94;;;-0.99;99.25
52935;BME280;38802;50.198;19.796;2024-03-08T08:46:29;96649.25;;;-0.99;98.96
52935;BME280;38802;50.198;19.796;2024-03-08T08:48:57;96652.23;;;-0.96;99.11
52935;BME280;38802;50.198;19.796;2024-03-08T08:51:26;96651.42;;;-0.92;98.52
52935;BME280;38802;50.198;19.796;2024-03-08T08:53:55;96646.92;;;-0.90;98.38
52935;BME280;38802;50.198;19.796;2024-03-08T08:56:24;96646.67;;;-0.87;98.53
52935;BME280;38802;50.198;19.796;2024-03-08T08:58:53;96642.59;;;-0.76;98.69
52935;BME280;38802;50.198;19.796;2024-03-08T09:01:21;96643.34;;;-0.56;99.02
52935;BME280;38802;50.198;19.796;2024-03-08T09:03:50;96644.04;;;-0.41;98.39
52935;BME280;38802;50.198;19.796;2024-03-08T09:06:19;96640.70;;;-0.27;98.11
52935;BME280;38802;50.198;19.796;2024-03-08T09:08:48;96642.45;;;-0.18;97.46
52935;BME280;38802;50.198;19.796;2024-03-08T09:11:16;96641.16;;;-0.25;96.87
52935;BME280;38802;50.198;19.796;2024-03-08T09:13:44;96638.81;;;-0.32;97.49
52935;BME280;38802;50.198;19.796;2024-03-08T09:16:14;96632.46;;;-0.26;97.20
52935;BME280;38802;50.198;19.796;2024-03-08T09:18:42;96636.42;;;-0.12;96.87
52935;BME280;38802;50.198;19.796;2024-03-08T09:21:11;96637.39;;;0.00;96.89
52935;BME280;38802;50.198;19.796;2024-03-08T09:23:41;96632.30;;;0.14;97.04
52935;BME280;38802;50.198;19.796;2024-03-08T09:26:09;96628.52;;;0.29;96.73
52935;BME280;38802;50.198;19.796;2024-03-08T09:28:49;96623.56;;;0.39;95.31
52935;BME280;38802;50.198;19.796;2024-03-08T09:31:17;96624.25;;;0.39;95.35
52935;BME280;38802;50.198;19.796;2024-03-08T09:33:46;96624.13;;;0.42;95.24
52935;BME280;38802;50.198;19.796;2024-03-08T09:36:14;96626.15;;;0.43;95.08
52935;BME280;38802;50.198;19.796;2024-03-08T09:38:42;96627.64;;;0.54;95.52
52935;BME280;38802;50.198;19.796;2024-03-08T09:41:11;96623.05;;;0.67;94.97
52935;BME280;38802;50.198;19.796;2024-03-08T09:43:40;96618.50;;;0.75;94.68
52935;BME280;38802;50.198;19.796;2024-03-08T09:46:09;96617.57;;;0.81;94.66
52935;BME280;38802;50.198;19.796;2024-03-08T09:48:38;96615.39;;;0.94;94.81
52935;BME280;38802;50.198;19.796;2024-03-08T09:51:09;96618.51;;;1.06;94.67
52935;BME280;38802;50.198;19.796;2024-03-08T09:53:41;96615.67;;;1.04;94.33
52935;BME280;38802;50.198;19.796;2024-03-08T09:56:12;96617.08;;;1.12;95.49
52935;BME280;38802;50.198;19.796;2024-03-08T09:58:40;96613.13;;;1.35;95.37
52935;BME280;38802;50.198;19.796;2024-03-08T10:01:37;96614.88;;;1.50;94.49
52935;BME280;38802;50.198;19.796;2024-03-08T10:04:09;96608.64;;;1.56;94.21
52935;BME280;38802;50.198;19.796;2024-03-08T10:06:39;96610.68;;;1.65;93.89
52935;BME280;38802;50.198;19.796;2024-03-08T10:09:07;96612.41;;;1.69;93.84
52935;BME280;38802;50.198;19.796;2024-03-08T10:11:39;96613.01;;;1.63;92.66
52935;BME280;38802;50.198;19.796;2024-03-08T10:14:11;96615.79;;;1.53;92.93
52935;BME280;38802;50.198;19.796;2024-03-08T10:16:39;96609.65;;;1.48;92.85
52935;BME280;38802;50.198;19.796;2024-03-08T10:19:07;96608.98;;;1.52;92.79
52935;BME280;38802;50.198;19.796;2024-03-08T10:21:50;96610.75;;;1.59;93.07
52935;BME280;38802;50.198;19.796;2024-03-08T10:24:22;96610.64;;;1.66;92.86
52935;BME280;38802;50.198;19.796;2024-03-08T10:27:00;96607.29;;;1.64;91.98
52935;BME280;38802;50.198;19.796;2024-03-08T10:29:33;96607.85;;;1.63;91.60
52935;BME280;38802;50.198;19.796;2024-03-08T10:32:01;96614.45;;;1.56;90.96
52935;BME280;38802;50.198;19.796;2024-03-08T10:34:30;96613.33;;;1.55;90.97
52935;BME280;38802;50.198;19.796;2024-03-08T10:37:03;96608.52;;;1.55;91.35
52935;BME280;38802;50.198;19.796;2024-03-08T10:39:36;96606.59;;;1.65;91.53
52935;BME280;38802;50.198;19.796;2024-03-08T10:42:05;96605.28;;;1.63;91.10
52935;BME280;38802;50.198;19.796;2024-03-08T10:44:48;96602.38;;;1.63;91.81
52935;BME280;38802;50.198;19.796;2024-03-08T10:47:24;96600.48;;;1.71;91.59
52935;BME280;38802;50.198;19.796;2024-03-08T10:50:11;96602.30;;;1.78;91.30
52935;BME280;38802;50.198;19.796;2024-03-08T10:52:48;96597.47;;;1.78;91.58
52935;BME280;38802;50.198;19.796;2024-03-08T10:55:18;96599.84;;;1.83;91.42
52935;BME280;38802;50.198;19.796;2024-03-08T10:57:48;96594.33;;;1.92;91.25
52935;BME280;38802;50.198;19.796;2024-03-08T11:00:16;96591.15;;;1.94;91.40
52935;BME280;38802;50.198;19.796;2024-03-08T11:02:46;96593.23;;;2.01;91.12
52935;BME280;38802;50.198;19.796;2024-03-08T11:05:40;96587.44;;;2.01;91.17
52935;BME280;38802;50.198;19.796;2024-03-08T11:08:17;96582.71;;;1.99;90.43
52935;BME280;38802;50.198;19.796;2024-03-08T11:10:50;96584.50;;;2.01;90.11
52935;BME280;38802;50.198;19.796;2024-03-08T11:13:41;96576.53;;;1.95;90.44
52935;BME280;38802;50.198;19.796;2024-03-08T11:16:13;96576.36;;;2.03;90.59
52935;BME280;38802;50.198;19.796;2024-03-08T11:19:06;96571.73;;;2.11;90.51
52935;BME280;38802;50.198;19.796;2024-03-08T11:21:38;96572.52;;;2.21;90.82
52935;BME280;38802;50.198;19.796;2024-03-08T11:24:12;96570.38;;;2.31;90.30
52935;BME280;38802;50.198;19.796;2024-03-08T11:26:41;96566.66;;;2.30;90.40
52935;BME280;38802;50.198;19.796;2024-03-08T11:32:17;96558.20;;;2.35;90.64
52935;BME280;38802;50.198;19.796;2024-03-08T11:34:50;96555.11;;;2.49;90.96
52935;BME280;38802;50.198;19.796;2024-03-08T11:37:19;96553.50;;;2.59;89.89
52935;BME280;38802;50.198;19.796;2024-03-08T11:39:52;96550.02;;;2.52;89.34
52935;BME280;38802;50.198;19.796;2024-03-08T11:42:27;96549.40;;;2.55;88.52
52935;BME280;38802;50.198;19.796;2024-03-08T11:44:55;96550.22;;;2.51;88.57
52935;BME280;38802;50.198;19.796;2024-03-08T11:47:24;96550.48;;;2.53;88.57
52935;BME280;38802;50.198;19.796;2024-03-08T11:49:54;96552.19;;;2.57;89.12
52935;BME280;38802;50.198;19.796;2024-03-08T11:52:22;96546.35;;;2.62;88.92
52935;BME280;38802;50.198;19.796;2024-03-08T11:54:54;96547.30;;;2.64;88.82
52935;BME280;38802;50.198;19.796;2024-03-08T11:57:26;96548.49;;;2.67;88.79
52935;BME280;38802;50.198;19.796;2024-03-08T11:59:56;96548.04;;;2.58;87.53
52935;BME280;38802;50.198;19.796;2024-03-08T12:03:04;96549.36;;;2.51;88.89
52935;BME280;38802;50.198;19.796;2024-03-08T12:05:33;96545.29;;;2.63;88.41
52935;BME280;38802;50.198;19.796;2024-03-08T12:08:02;96540.45;;;2.67;88.45
52935;BME280;38802;50.198;19.796;2024-03-08T12:10:31;96539.69;;;2.68;87.29
52935;BME280;38802;50.198;19.796;2024-03-08T12:12:59;96542.80;;;2.68;88.18
52935;BME280;38802;50.198;19.796;2024-03-08T12:15:28;96540.33;;;2.70;87.60
52935;BME280;38802;50.198;19.796;2024-03-08T12:17:58;96536.52;;;2.66;88.09
52935;BME280;38802;50.198;19.796;2024-03-08T12:20:28;96536.14;;;2.75;88.55
52935;BME280;38802;50.198;19.796;2024-03-08T12:22:59;96533.50;;;2.76;88.35
52935;BME280;38802;50.198;19.796;2024-03-08T12:25:32;96527.94;;;2.78;88.60
52935;BME280;38802;50.198;19.796;2024-03-08T12:28:07;96529.78;;;2.82;88.60
52935;BME280;38802;50.198;19.796;2024-03-08T12:30:51;96531.96;;;2.87;87.90
52935;BME280;38802;50.198;19.796;2024-03-08T12:33:22;96526.68;;;2.82;88.03
52935;BME280;38802;50.198;19.796;2024-03-08T12:35:52;96531.88;;;2.81;87.92
52935;BME280;38802;50.198;19.796;2024-03-08T12:38:23;96528.68;;;2.80;87.75
52935;BME280;38802;50.198;19.796;2024-03-08T12:40:55;96519.75;;;2.76;88.03
52935;BME280;38802;50.198;19.796;2024-03-08T12:43:25;96521.81;;;2.80;87.71
52935;BME280;38802;50.198;19.796;2024-03-08T12:45:53;96520.64;;;2.79;88.19
52935;BME280;38802;50.198;19.796;2024-03-08T12:48:22;96519.09;;;2.80;88.27
52935;BME280;38802;50.198;19.796;2024-03-08T12:50:50;96520.77;;;2.84;88.00
52935;BME280;38802;50.198;19.796;2024-03-08T12:53:21;96516.67;;;2.83;87.72
52935;BME280;38802;50.198;19.796;2024-03-08T12:55:51;96516.03;;;2.86;87.15
52935;BME280;38802;50.198;19.796;2024-03-08T12:58:20;96514.84;;;2.79;87.42
52935;BME280;38802;50.198;19.796;2024-03-08T13:00:49;96513.52;;;2.81;87.09
52935;BME280;38802;50.198;19.796;2024-03-08T13:03:21;96508.17;;;2.86;86.64